sensor_id;sensor_type;location;lat;lon;timestamp;pressure;altitude;pressure_sealevel;temperature;humidity
29461;BME280;16428;47.836;35.106;2024-03-22T00:01:45;101656.84;;;1.58;100.00
29461;BME280;16428;47.836;35.106;2024-03-22T00:04:14;101659.31;;;1.61;100.00
29461;BME280;16428;47.836;35.106;2024-03-22T00:06:41;101667.09;;;1.50;100.00
29461;BME280;16428;47.836;35.106;2024-03-22T00:09:08;101663.47;;;1.65;100.00
29461;BME280;16428;47.836;35.106;2024-03-22T00:11:35;101659.47;;;1.72;100.00
29461;BME280;16428;47.836;35.106;2024-03-22T00:14:01;101652.28;;;1.74;100.00
29461;BME280;16428;47.836;35.106;2024-03-22T00:16:27;101653.38;;;1.84;100.00
29461;BME280;16428;47.836;35.106;2024-03-22T00:18:53;101661.38;;;1.70;100.00
29461;BME280;16428;47.836;35.106;2024-03-22T00:21:21;101653.22;;;1.73;100.00
29461;BME280;16428;47.836;35.106;2024-03-22T00:23:47;101661.78;;;1.64;100.00
29461;BME280;16428;47.836;35.106;2024-03-22T00:26:13;101655.16;;;1.57;100.00
29461;BME280;16428;47.836;35.106;2024-03-22T00:28:39;101660.63;;;1.54;100.00
29461;BME280;16428;47.836;35.106;2024-03-22T00:31:05;101655.13;;;1.71;100.00
29461;BME280;16428;47.836;35.106;2024-03-22T00:33:31;101655.06;;;1.44;100.00
29461;BME280;16428;47.836;35.106;2024-03-22T00:35:57;101651.38;;;1.47;100.00
29461;BME280;16428;47.836;35.106;2024-03-22T00:38:23;101656.75;;;1.59;100.00
29461;BME280;16428;47.836;35.106;2024-03-22T00:40:49;101651.00;;;1.67;100.00
29461;BME280;16428;47.836;35.106;2024-03-22T00:43:15;101656.19;;;1.54;100.00
29461;BME280;16428;47.836;35.106;2024-03-22T00:45:41;101653.09;;;1.48;100.00
29461;BME280;16428;47.836;35.106;2024-03-22T00:48:07;101660.28;;;1.46;100.00
29461;BME280;16428;47.836;35.106;2024-03-22T00:50:34;101649.59;;;1.47;100.00
29461;BME280;16428;47.836;35.106;2024-03-22T00:53:00;101654.78;;;1.34;100.00
29461;BME280;16428;47.836;35.106;2024-03-22T00:55:28;101655.91;;;1.45;100.00
29461;BME280;16428;47.836;35.106;2024-03-22T00:57:54;101651.84;;;1.53;100.00
29461;BME280;16428;47.836;35.106;2024-03-22T01:00:21;101652.06;;;1.50;100.00
29461;BME280;16428;47.836;35.106;2024-03-22T01:02:47;101643.44;;;1.32;100.00
29461;BME280;16428;47.836;35.106;2024-03-22T01:05:13;101646.47;;;1.26;100.00
29461;BME280;16428;47.836;35.106;2024-03-22T01:07:40;101651.00;;;1.38;100.00
29461;BME280;16428;47.836;35.106;2024-03-22T01:10:06;101642.31;;;1.36;100.00
29461;BME280;16428;47.836;35.106;2024-03-22T01:12:33;101643.63;;;1.44;100.00
29461;BME280;16428;47.836;35.106;2024-03-22T01:14:59;101647.22;;;1.42;100.00
29461;BME280;16428;47.836;35.106;2024-03-22T01:17:25;101647.09;;;1.58;100.00
29461;BME280;16428;47.836;35.106;2024-03-22T01:19:51;101637.38;;;1.59;100.00
29461;BME280;16428;47.836;35.106;2024-03-22T01:22:18;101638.72;;;1.52;100.00
29461;BME280;16428;47.836;35.106;2024-03-22T01:24:44;101638.13;;;1.47;100.00
29461;BME280;16428;47.836;35.106;2024-03-22T01:27:11;101637.97;;;1.21;100.00
29461;BME280;16428;47.836;35.106;2024-03-22T01:29:37;101638.31;;;1.44;100.00
29461;BME280;16428;47.836;35.106;2024-03-22T01:32:03;101639.84;;;1.33;100.00
29461;BME280;16428;47.836;35.106;2024-03-22T01:34:29;101639.66;;;1.22;100.00
29461;BME280;16428;47.836;35.106;2024-03-22T01:36:55;101638.50;;;1.40;100.00
29461;BME280;16428;47.836;35.106;2024-03-22T01:39:21;101634.66;;;1.18;100.00
29461;BME280;16428;47.836;35.106;2024-03-22T01:41:48;101635.50;;;1.18;100.00
29461;BME280;16428;47.836;35.106;2024-03-22T01:44:14;101633.13;;;1.28;100.00
29461;BME280;16428;47.836;35.106;2024-03-22T01:46:41;101641.91;;;1.42;100.00
29461;BME280;16428;47.836;35.106;2024-03-22T01:49:09;101636.81;;;1.39;100.00
29461;BME280;16428;47.836;35.106;2024-03-22T01:51:35;101632.47;;;1.24;100.00
29461;BME280;16428;47.836;35.106;2024-03-22T01:54:03;101634.00;;;1.14;100.00
29461;BME280;16428;47.836;35.106;2024-03-22T01:56:30;101636.25;;;1.06;100.00
29461;BME280;16428;47.836;35.106;2024-03-22T01:58:56;101629.06;;;1.08;100.00
29461;BME280;16428;47.836;35.106;2024-03-22T02:01:23;101630.75;;;0.95;100.00
29461;BME280;16428;47.836;35.106;2024-03-22T02:03:49;101637.06;;;0.92;100.00
29461;BME280;16428;47.836;35.106;2024-03-22T02:06:15;101629.81;;;0.96;100.00
29461;BME280;16428;47.836;35.106;2024-03-22T02:08:41;101628.97;;;1.10;100.00
29461;BME280;16428;47.836;35.106;2024-03-22T02:11:09;101633.13;;;0.85;100.00
29461;BME280;16428;47.836;35.106;2024-03-22T02:13:35;101630.75;;;0.95;100.00
29461;BME280;16428;47.836;35.106;2024-03-22T02:16:05;101642.88;;;0.99;100.00
29461;BME280;16428;47.836;35.106;2024-03-22T02:18:32;101633.22;;;1.12;100.00
29461;BME280;16428;47.836;35.106;2024-03-22T02:20:58;101633.97;;;1.00;100.00
29461;BME280;16428;47.836;35.106;2024-03-22T02:23:38;101635.69;;;1.01;100.00
29461;BME280;16428;47.836;35.106;2024-03-22T02:26:04;101637.28;;;0.89;100.00
29461;BME280;16428;47.836;35.106;2024-03-22T02:28:31;101633.97;;;1.00;100.00
29461;BME280;16428;47.836;35.106;2024-03-22T02:30:59;101635.88;;;0.98;100.00
29461;BME280;16428;47.836;35.106;2024-03-22T02:33:25;101644.16;;;0.92;100.00
29461;BME280;16428;47.836;35.106;2024-03-22T02:35:51;101639.19;;;1.16;100.00
29461;BME280;16428;47.836;35.106;2024-03-22T02:38:18;101637.50;;;1.15;100.00
29461;BME280;16428;47.836;35.106;2024-03-22T02:40:45;101634.16;;;0.97;100.00
29461;BME280;16428;47.836;35.106;2024-03-22T02:43:11;101643.00;;;0.67;100.00
29461;BME280;16428;47.836;35.106;2024-03-22T02:45:38;101635.25;;;0.79;100.00
29461;BME280;16428;47.836;35.106;2024-03-22T02:48:04;101632.19;;;0.86;100.00
29461;BME280;16428;47.836;35.106;2024-03-22T02:50:34;101640.38;;;0.82;100.00
29461;BME280;16428;47.836;35.106;2024-03-22T02:53:00;101634.50;;;0.77;100.00
29461;BME280;16428;47.836;35.106;2024-03-22T02:55:27;101642.44;;;0.77;100.00
29461;BME280;16428;47.836;35.106;2024-03-22T02:57:53;101637.78;;;0.66;100.00
29461;BME280;16428;47.836;35.106;2024-03-22T03:00:19;101635.66;;;0.87;100.00
29461;BME280;16428;47.836;35.106;2024-03-22T03:02:45;101640.09;;;0.86;100.00
29461;BME280;16428;47.836;35.106;2024-03-22T03:05:11;101636.59;;;0.72;100.00
29461;BME280;16428;47.836;35.106;2024-03-22T03:07:37;101633.75;;;0.60;100.00
29461;BME280;16428;47.836;35.106;2024-03-22T03:10:04;101632.03;;;0.59;100.00
29461;BME280;16428;47.836;35.106;2024-03-22T03:15:53;101631.94;;;0.61;100.00
29461;BME280;16428;47.836;35.106;2024-03-22T03:18:19;101633.44;;;0.65;100.00
29461;BME280;16428;47.836;35.106;2024-03-22T03:20:45;101632.72;;;0.77;100.00
29461;BME280;16428;47.836;35.106;2024-03-22T03:25:55;101625.63;;;0.78;100.00
29461;BME280;16428;47.836;35.106;2024-03-22T03:28:22;101623.66;;;0.81;100.00
29461;BME280;16428;47.836;35.106;2024-03-22T03:30:48;101629.41;;;0.74;100.00
29461;BME280;16428;47.836;35.106;2024-03-22T03:33:14;101627.91;;;0.84;100.00
29461;BME280;16428;47.836;35.106;2024-03-22T03:35:39;101627.25;;;0.80;100.00
29461;BME280;16428;47.836;35.106;2024-03-22T03:38:05;101629.44;;;0.88;100.00
29461;BME280;16428;47.836;35.106;2024-03-22T03:43:22;101627.53;;;0.76;100.00
29461;BME280;16428;47.836;35.106;2024-03-22T03:45:48;101633.53;;;0.63;100.00
29461;BME280;16428;47.836;35.106;2024-03-22T03:48:14;101633.81;;;0.59;100.00
29461;BME280;16428;47.836;35.106;2024-03-22T03:50:40;101631.81;;;0.62;100.00
29461;BME280;16428;47.836;35.106;2024-03-22T03:53:06;101636.97;;;0.80;100.00
29461;BME280;16428;47.836;35.106;2024-03-22T03:55:32;101632.41;;;0.67;100.00
29461;BME280;16428;47.836;35.106;2024-03-22T03:57:59;101636.13;;;0.79;100.00
29461;BME280;16428;47.836;35.106;2024-03-22T04:00:25;101640.56;;;0.79;100.00
29461;BME280;16428;47.836;35.106;2024-03-22T04:02:51;101637.53;;;0.70;100.00
29461;BME280;16428;47.836;35.106;2024-03-22T04:05:17;101637.34;;;0.74;100.00
29461;BME280;16428;47.836;35.106;2024-03-22T04:07:47;101640.63;;;0.77;100.00
29461;BME280;16428;47.836;35.106;2024-03-22T04:10:13;101629.34;;;0.75;100.00
29461;BME280;16428;47.836;35.106;2024-03-22T04:12:39;101628.28;;;0.78;100.00
29461;BME280;16428;47.836;35.106;2024-03-22T04:15:05;101633.56;;;0.78;100.00
29461;BME280;16428;47.836;35.106;2024-03-22T04:17:32;101630.72;;;0.81;100.00
29461;BME280;16428;47.836;35.106;2024-03-22T04:19:58;101633.91;;;1.01;100.00
29461;BME280;16428;47.836;35.106;2024-03-22T04:22:24;101636.81;;;1.11;100.00
29461;BME280;16428;47.836;35.106;2024-03-22T04:24:50;101635.13;;;1.10;100.00
29461;BME280;16428;47.836;35.106;2024-03-22T04:27:16;101630.22;;;1.32;100.00
29461;BME280;16428;47.836;35.106;2024-03-22T04:29:41;101630.22;;;1.32;100.00
29461;BME280;16428;47.836;35.106;2024-03-22T04:32:08;101628.00;;;1.53;100.00
29461;BME280;16428;47.836;35.106;2024-03-22T04:34:34;101623.00;;;1.63;100.00
29461;BME280;16428;47.836;35.106;2024-03-22T04:36:59;101628.19;;;1.64;100.00
29461;BME280;16428;47.836;35.106;2024-03-22T04:39:25;101630.53;;;1.69;100.00
29461;BME280;16428;47.836;35.106;2024-03-22T04:41:51;101635.16;;;1.80;100.00
29461;BME280;16428;47.836;35.106;2024-03-22T04:44:17;101635.59;;;1.86;100.00
29461;BME280;16428;47.836;35.106;2024-03-22T04:46:44;101636.50;;;1.99;100.00
29461;BME280;16428;47.836;35.106;2024-03-22T04:49:09;101638.22;;;2.00;100.00
29461;BME280;16428;47.836;35.106;2024-03-22T04:51:35;101632.53;;;2.06;100.00
29461;BME280;16428;47.836;35.106;2024-03-22T04:54:01;101631.56;;;2.07;100.00
29461;BME280;16428;47.836;35.106;2024-03-22T04:56:27;101638.13;;;2.29;100.00
29461;BME280;16428;47.836;35.106;2024-03-22T04:58:53;101639.47;;;2.22;100.00
29461;BME280;16428;47.836;35.106;2024-03-22T05:01:21;101636.81;;;2.22;100.00
29461;BME280;16428;47.836;35.106;2024-03-22T05:03:49;101640.66;;;2.30;100.00
29461;BME280;16428;47.836;35.106;2024-03-22T05:06:15;101649.25;;;2.34;100.00
29461;BME280;16428;47.836;35.106;2024-03-22T05:08:41;101647.25;;;2.37;100.00
29461;BME280;16428;47.836;35.106;2024-03-22T05:11:07;101648.50;;;2.32;100.00
29461;BME280;16428;47.836;35.106;2024-03-22T05:13:33;101658.50;;;2.28;100.00
29461;BME280;16428;47.836;35.106;2024-03-22T05:15:59;101653.56;;;2.22;100.00
29461;BME280;16428;47.836;35.106;2024-03-22T05:18:25;101659.47;;;2.40;100.00
29461;BME280;16428;47.836;35.106;2024-03-22T05:20:51;101664.91;;;2.51;100.00
29461;BME280;16428;47.836;35.106;2024-03-22T05:23:17;101664.78;;;2.40;100.00
29461;BME280;16428;47.836;35.106;2024-03-22T05:25:43;101664.78;;;2.40;100.00
29461;BME280;16428;47.836;35.106;2024-03-22T05:28:09;101670.34;;;2.23;100.00
29461;BME280;16428;47.836;35.106;2024-03-22T05:30:35;101678.38;;;2.48;100.00
29461;BME280;16428;47.836;35.106;2024-03-22T05:33:02;101671.91;;;2.52;100.00
29461;BME280;16428;47.836;35.106;2024-03-22T05:35:28;101666.28;;;2.44;100.00
29461;BME280;16428;47.836;35.106;2024-03-22T05:37:54;101650.41;;;2.30;100.00
29461;BME280;16428;47.836;35.106;2024-03-22T05:40:20;101650.66;;;2.39;100.00
29461;BME280;16428;47.836;35.106;2024-03-22T05:42:46;101649.34;;;2.59;100.00
29461;BME280;16428;47.836;35.106;2024-03-22T05:45:12;101651.53;;;2.40;100.00
29461;BME280;16428;47.836;35.106;2024-03-22T05:47:38;101655.38;;;2.22;100.00
29461;BME280;16428;47.836;35.106;2024-03-22T05:50:04;101653.47;;;2.24;100.00
29461;BME280;16428;47.836;35.106;2024-03-22T05:52:34;101664.91;;;2.51;100.00
29461;BME280;16428;47.836;35.106;2024-03-22T05:55:00;101662.53;;;2.34;100.00
29461;BME280;16428;47.836;35.106;2024-03-22T05:57:26;101669.88;;;2.43;100.00
29461;BME280;16428;47.836;35.106;2024-03-22T05:59:52;101665.09;;;2.48;100.00
29461;BME280;16428;47.836;35.106;2024-03-22T06:02:19;101664.16;;;2.49;100.00
29461;BME280;16428;47.836;35.106;2024-03-22T06:04:45;101663.34;;;2.61;100.00
29461;BME280;16428;47.836;35.106;2024-03-22T06:07:11;101659.97;;;2.32;100.00
29461;BME280;16428;47.836;35.106;2024-03-22T06:09:38;101663.66;;;2.30;100.00
29461;BME280;16428;47.836;35.106;2024-03-22T06:12:12;101660.97;;;2.17;100.00
29461;BME280;16428;47.836;35.106;2024-03-22T06:14:42;101666.81;;;1.95;100.00
29461;BME280;16428;47.836;35.106;2024-03-22T06:17:08;101670.41;;;1.94;100.00
29461;BME280;16428;47.836;35.106;2024-03-22T06:19:35;101676.03;;;2.17;100.00
29461;BME280;16428;47.836;35.106;2024-03-22T06:22:02;101673.03;;;2.35;100.00
29461;BME280;16428;47.836;35.106;2024-03-22T06:24:28;101665.47;;;2.29;100.00
29461;BME280;16428;47.836;35.106;2024-03-22T06:26:55;101675.59;;;2.37;100.00
29461;BME280;16428;47.836;35.106;2024-03-22T06:29:21;101678.19;;;2.24;100.00
29461;BME280;16428;47.836;35.106;2024-03-22T06:31:47;101668.78;;;2.33;100.00
29461;BME280;16428;47.836;35.106;2024-03-22T06:34:13;101662.38;;;2.23;100.00
29461;BME280;16428;47.836;35.106;2024-03-22T06:36:39;101663.81;;;2.14;100.00
29461;BME280;16428;47.836;35.106;2024-03-22T06:39:05;101669.75;;;2.44;100.00
29461;BME280;16428;47.836;35.106;2024-03-22T06:41:34;101660.28;;;2.67;100.00
29461;BME280;16428;47.836;35.106;2024-03-22T06:44:00;101660.69;;;2.61;100.00
29461;BME280;16428;47.836;35.106;2024-03-22T06:46:28;101666.44;;;2.68;100.00
29461;BME280;16428;47.836;35.106;2024-03-22T06:48:54;101656.00;;;2.52;100.00
29461;BME280;16428;47.836;35.106;2024-03-22T06:51:20;101664.22;;;2.35;100.00
29461;BME280;16428;47.836;35.106;2024-03-22T06:53:46;101666.06;;;2.47;100.00
29461;BME280;16428;47.836;35.106;2024-03-22T06:56:13;101658.59;;;2.66;100.00
29461;BME280;16428;47.836;35.106;2024-03-22T06:58:40;101661.31;;;2.52;100.00
29461;BME280;16428;47.836;35.106;2024-03-22T07:01:06;101656.88;;;2.65;100.00
29461;BME280;16428;47.836;35.106;2024-03-22T07:03:32;101656.88;;;2.65;100.00
29461;BME280;16428;47.836;35.106;2024-03-22T07:05:59;101656.47;;;2.71;100.00
29461;BME280;16428;47.836;35.106;2024-03-22T07:08:26;101665.50;;;2.81;100.00
29461;BME280;16428;47.836;35.106;2024-03-22T07:10:54;101655.94;;;2.79;100.00
29461;BME280;16428;47.836;35.106;2024-03-22T07:13:20;101658.38;;;2.69;100.00
29461;BME280;16428;47.836;35.106;2024-03-22T07:15:47;101658.41;;;2.82;100.00
29461;BME280;16428;47.836;35.106;2024-03-22T07:18:14;101654.34;;;2.76;100.00
29461;BME280;16428;47.836;35.106;2024-03-22T07:20:41;101660.75;;;2.87;100.00
29461;BME280;16428;47.836;35.106;2024-03-22T07:23:07;101655.84;;;2.80;100.00
29461;BME280;16428;47.836;35.106;2024-03-22T07:25:34;101663.31;;;3.01;100.00
29461;BME280;16428;47.836;35.106;2024-03-22T07:28:00;101659.34;;;2.94;100.00
29461;BME280;16428;47.836;35.106;2024-03-22T07:30:26;101660.97;;;2.96;100.00
29461;BME280;16428;47.836;35.106;2024-03-22T07:32:52;101662.47;;;3.00;100.00
29461;BME280;16428;47.836;35.106;2024-03-22T07:35:19;101673.38;;;2.96;100.00
29461;BME280;16428;47.836;35.106;2024-03-22T07:37:45;101665.84;;;3.15;100.00
29461;BME280;16428;47.836;35.106;2024-03-22T07:40:11;101668.81;;;2.98;100.00
29461;BME280;16428;47.836;35.106;2024-03-22T07:42:38;101668.41;;;3.04;100.00
29461;BME280;16428;47.836;35.106;2024-03-22T07:45:04;101666.25;;;3.22;100.00
29461;BME280;16428;47.836;35.106;2024-03-22T07:47:30;101655.44;;;3.12;100.00
29461;BME280;16428;47.836;35.106;2024-03-22T07:49:57;101665.84;;;3.02;100.00
29461;BME280;16428;47.836;35.106;2024-03-22T07:52:23;101658.00;;;3.26;100.00
29461;BME280;16428;47.836;35.106;2024-03-22T07:54:50;101648.66;;;3.33;100.00
29461;BME280;16428;47.836;35.106;2024-03-22T07:57:16;101655.44;;;3.37;100.00
29461;BME280;16428;47.836;35.106;2024-03-22T07:59:42;101651.59;;;3.41;99.82
29461;BME280;16428;47.836;35.106;2024-03-22T08:02:10;101660.50;;;3.53;99.88
29461;BME280;16428;47.836;35.106;2024-03-22T08:04:36;101654.34;;;3.52;100.00
29461;BME280;16428;47.836;35.106;2024-03-22T08:07:03;101660.50;;;3.66;99.98
29461;BME280;16428;47.836;35.106;2024-03-22T08:09:29;101646.28;;;3.54;99.45
29461;BME280;16428;47.836;35.106;2024-03-22T08:11:55;101649.22;;;3.75;99.44
29461;BME280;16428;47.836;35.106;2024-03-22T08:14:21;101642.16;;;3.86;97.66
29461;BME280;16428;47.836;35.106;2024-03-22T08:16:47;101644.69;;;3.64;98.53
29461;BME280;16428;47.836;35.106;2024-03-22T08:19:13;101642.72;;;3.79;97.12
29461;BME280;16428;47.836;35.106;2024-03-22T08:21:39;101644.75;;;3.99;95.78
29461;BME280;16428;47.836;35.106;2024-03-22T08:24:05;101641.53;;;3.83;95.14
29461;BME280;16428;47.836;35.106;2024-03-22T08:26:31;101633.81;;;4.04;95.14
29461;BME280;16428;47.836;35.106;2024-03-22T08:28:57;101626.91;;;4.01;96.06
29461;BME280;16428;47.836;35.106;2024-03-22T08:31:24;101632.16;;;3.90;96.21
29461;BME280;16428;47.836;35.106;2024-03-22T08:33:51;101620.72;;;3.77;97.17
29461;BME280;16428;47.836;35.106;2024-03-22T08:36:17;101628.44;;;3.93;97.10
29461;BME280;16428;47.836;35.106;2024-03-22T08:38:43;101624.13;;;3.79;98.47
29461;BME280;16428;47.836;35.106;2024-03-22T08:41:10;101617.91;;;3.91;97.14
29461;BME280;16428;47.836;35.106;2024-03-22T08:43:36;101624.50;;;3.85;98.50
29461;BME280;16428;47.836;35.106;2024-03-22T08:46:02;101622.63;;;4.11;97.40
29461;BME280;16428;47.836;35.106;2024-03-22T08:48:29;101622.66;;;4.22;95.93
29461;BME280;16428;47.836;35.106;2024-03-22T08:50:55;101621.34;;;4.28;95.73
29461;BME280;16428;47.836;35.106;2024-03-22T08:53:21;101617.56;;;4.19;96.09
29461;BME280;16428;47.836;35.106;2024-03-22T08:55:48;101622.03;;;4.19;96.79
29461;BME280;16428;47.836;35.106;2024-03-22T08:58:14;101614.50;;;4.37;95.67
29461;BME280;16428;47.836;35.106;2024-03-22T09:00:41;101611.34;;;4.08;99.03
29461;BME280;16428;47.836;35.106;2024-03-22T09:03:08;101615.34;;;4.37;96.54
29461;BME280;16428;47.836;35.106;2024-03-22T09:05:34;101620.38;;;4.29;98.54
29461;BME280;16428;47.836;35.106;2024-03-22T09:08:00;101625.53;;;4.19;95.05
29461;BME280;16428;47.836;35.106;2024-03-22T09:10:26;101618.13;;;4.36;95.47
29461;BME280;16428;47.836;35.106;2024-03-22T09:12:52;101620.63;;;4.61;94.04
29461;BME280;16428;47.836;35.106;2024-03-22T09:15:18;101612.81;;;4.36;95.92
29461;BME280;16428;47.836;35.106;2024-03-22T09:17:44;101611.72;;;4.38;94.46
29461;BME280;16428;47.836;35.106;2024-03-22T09:20:11;101603.03;;;4.12;96.72
29461;BME280;16428;47.836;35.106;2024-03-22T09:22:37;101603.97;;;4.35;96.53
29461;BME280;16428;47.836;35.106;2024-03-22T09:25:05;101596.94;;;4.58;95.64
29461;BME280;16428;47.836;35.106;2024-03-22T09:27:32;101597.59;;;4.49;95.61
29461;BME280;16428;47.836;35.106;2024-03-22T09:30:01;101605.09;;;4.44;96.48
29461;BME280;16428;47.836;35.106;2024-03-22T09:32:30;101604.94;;;4.34;98.47
29461;BME280;16428;47.836;35.106;2024-03-22T09:34:56;101609.53;;;4.78;96.63
29461;BME280;16428;47.836;35.106;2024-03-22T09:37:22;101610.72;;;4.63;98.08
29461;BME280;16428;47.836;35.106;2024-03-22T09:39:48;101603.78;;;4.49;99.25
29461;BME280;16428;47.836;35.106;2024-03-22T09:42:17;101592.69;;;4.67;97.48
29461;BME280;16428;47.836;35.106;2024-03-22T09:44:49;101593.44;;;4.69;96.20
29461;BME280;16428;47.836;35.106;2024-03-22T09:47:19;101588.47;;;4.75;97.50
29461;BME280;16428;47.836;35.106;2024-03-22T09:49:47;101588.63;;;4.85;96.21
29461;BME280;16428;47.836;35.106;2024-03-22T09:52:15;101590.56;;;4.83;96.29
29461;BME280;16428;47.836;35.106;2024-03-22T09:54:41;101584.66;;;5.24;94.65
29461;BME280;16428;47.836;35.106;2024-03-22T09:57:14;101591.97;;;4.65;95.36
29461;BME280;16428;47.836;35.106;2024-03-22T09:59:42;101588.53;;;4.98;94.65
29461;BME280;16428;47.836;35.106;2024-03-22T10:02:11;101589.38;;;5.20;94.42
29461;BME280;16428;47.836;35.106;2024-03-22T10:04:38;101583.94;;;5.00;95.58
29461;BME280;16428;47.836;35.106;2024-03-22T10:07:05;101587.69;;;5.19;94.16
29461;BME280;16428;47.836;35.106;2024-03-22T10:09:32;101590.13;;;5.34;93.34
29461;BME280;16428;47.836;35.106;2024-03-22T10:11:58;101585.88;;;5.31;94.60
29461;BME280;16428;47.836;35.106;2024-03-22T10:14:24;101583.47;;;5.17;94.68
29461;BME280;16428;47.836;35.106;2024-03-22T10:16:53;101582.72;;;5.26;94.60
29461;BME280;16428;47.836;35.106;2024-03-22T10:19:20;101578.63;;;5.33;93.85
29461;BME280;16428;47.836;35.106;2024-03-22T10:22:02;101564.09;;;5.04;95.73
29461;BME280;16428;47.836;35.106;2024-03-22T10:24:30;101560.69;;;5.13;94.13
29461;BME280;16428;47.836;35.106;2024-03-22T10:26:56;101557.06;;;5.14;94.67
29461;BME280;16428;47.836;35.106;2024-03-22T10:29:22;101563.22;;;5.37;94.95
29461;BME280;16428;47.836;35.106;2024-03-22T10:31:51;101554.63;;;5.33;94.65
29461;BME280;16428;47.836;35.106;2024-03-22T10:34:17;101565.78;;;5.27;96.27
29461;BME280;16428;47.836;35.106;2024-03-22T10:36:44;101564.81;;;5.17;96.07
29461;BME280;16428;47.836;35.106;2024-03-22T10:39:12;101564.06;;;5.26;96.43
29461;BME280;16428;47.836;35.106;2024-03-22T10:41:39;101563.72;;;5.30;95.71
29461;BME280;16428;47.836;35.106;2024-03-22T10:44:05;101563.34;;;5.46;96.50
29461;BME280;16428;47.836;35.106;2024-03-22T10:46:34;101561.66;;;5.34;95.16
29461;BME280;16428;47.836;35.106;2024-03-22T10:49:02;101566.97;;;5.45;95.76
29461;BME280;16428;47.836;35.106;2024-03-22T10:51:35;101566.13;;;5.45;96.17
29461;BME280;16428;47.836;35.106;2024-03-22T10:54:03;101562.63;;;5.33;96.07
29461;BME280;16428;47.836;35.106;2024-03-22T10:56:30;101568.66;;;5.46;95.46
29461;BME280;16428;47.836;35.106;2024-03-22T10:58:56;101571.06;;;5.60;93.99
29461;BME280;16428;47.836;35.106;2024-03-22T11:01:25;101568.88;;;5.54;94.60
29461;BME280;16428;47.836;35.106;2024-03-22T11:04:03;101570.53;;;5.66;93.68
29461;BME280;16428;47.836;35.106;2024-03-22T11:06:31;101568.41;;;5.60;93.50
29461;BME280;16428;47.836;35.106;2024-03-22T11:09:01;101564.28;;;5.56;94.65
29461;BME280;16428;47.836;35.106;2024-03-22T11:11:32;101558.47;;;5.40;94.51
29461;BME280;16428;47.836;35.106;2024-03-22T11:14:06;101556.53;;;5.53;94.66
29461;BME280;16428;47.836;35.106;2024-03-22T11:16:32;101563.78;;;5.62;94.32
29461;BME280;16428;47.836;35.106;2024-03-22T11:18:59;101559.31;;;5.63;93.69
29461;BME280;16428;47.836;35.106;2024-03-22T11:21:26;101550.72;;;5.59;94.33
29461;BME280;16428;47.836;35.106;2024-03-22T11:23:53;101547.69;;;5.53;94.70
29461;BME280;16428;47.836;35.106;2024-03-22T11:26:19;101549.53;;;5.41;96.02
29461;BME280;16428;47.836;35.106;2024-03-22T11:28:46;101550.47;;;5.51;97.41
29461;BME280;16428;47.836;35.106;2024-03-22T11:31:13;101544.94;;;5.21;98.86
29461;BME280;16428;47.836;35.106;2024-03-22T11:33:39;101543.75;;;5.03;99.77
29461;BME280;16428;47.836;35.106;2024-03-22T11:36:05;101540.34;;;5.23;98.75
29461;BME280;16428;47.836;35.106;2024-03-22T11:38:32;101544.94;;;5.21;97.17
29461;BME280;16428;47.836;35.106;2024-03-22T11:40:59;101545.41;;;5.26;99.36
29461;BME280;16428;47.836;35.106;2024-03-22T11:43:30;101547.09;;;5.38;98.90
29461;BME280;16428;47.836;35.106;2024-03-22T11:46:00;101547.03;;;5.72;99.23
29461;BME280;16428;47.836;35.106;2024-03-22T11:48:31;101540.38;;;5.77;96.09
29461;BME280;16428;47.836;35.106;2024-03-22T11:50:58;101539.97;;;5.39;97.16
29461;BME280;16428;47.836;35.106;2024-03-22T11:53:27;101533.66;;;5.83;97.84
29461;BME280;16428;47.836;35.106;2024-03-22T11:55:53;101537.75;;;5.98;96.19
29461;BME280;16428;47.836;35.106;2024-03-22T11:58:19;101529.44;;;5.91;96.31
29461;BME280;16428;47.836;35.106;2024-03-22T12:00:45;101533.28;;;5.98;95.89
29461;BME280;16428;47.836;35.106;2024-03-22T12:03:11;101531.09;;;6.04;96.25
29461;BME280;16428;47.836;35.106;2024-03-22T12:05:40;101524.34;;;6.20;94.58
29461;BME280;16428;47.836;35.106;2024-03-22T12:08:07;101532.25;;;5.79;94.51
29461;BME280;16428;47.836;35.106;2024-03-22T12:10:34;101526.84;;;6.01;94.48
29461;BME280;16428;47.836;35.106;2024-03-22T12:13:00;101523.28;;;5.80;94.63
29461;BME280;16428;47.836;35.106;2024-03-22T12:15:26;101508.25;;;5.90;96.49
29461;BME280;16428;47.836;35.106;2024-03-22T12:17:52;101511.63;;;5.92;94.65
29461;BME280;16428;47.836;35.106;2024-03-22T12:20:19;101507.00;;;5.83;93.94
29461;BME280;16428;47.836;35.106;2024-03-22T12:22:45;101508.81;;;6.25;94.98
29461;BME280;16428;47.836;35.106;2024-03-22T12:25:11;101511.44;;;6.05;93.80
29461;BME280;16428;47.836;35.106;2024-03-22T12:27:38;101504.50;;;6.34;95.44
29461;BME280;16428;47.836;35.106;2024-03-22T12:30:05;101489.34;;;6.34;94.40
29461;BME280;16428;47.836;35.106;2024-03-22T12:32:32;101493.88;;;6.02;92.37
29461;BME280;16428;47.836;35.106;2024-03-22T12:34:58;101495.78;;;5.79;95.16
29461;BME280;16428;47.836;35.106;2024-03-22T12:37:25;101485.81;;;6.13;95.32
29461;BME280;16428;47.836;35.106;2024-03-22T12:39:50;101483.22;;;6.23;92.84
29461;BME280;16428;47.836;35.106;2024-03-22T12:42:19;101483.78;;;6.26;92.98
29461;BME280;16428;47.836;35.106;2024-03-22T12:44:46;101484.72;;;6.37;95.37
29461;BME280;16428;47.836;35.106;2024-03-22T12:47:12;101473.19;;;6.15;97.47
29461;BME280;16428;47.836;35.106;2024-03-22T12:49:38;101478.84;;;6.43;94.87